KLM932 EGPH-EHAM
Flight info
| Callsign | KLM932 |
|---|---|
| Flight time | N/A |
| Altitude | 37000 |
| Route | TLA Y96 OTBUN DCT ERKIT N110 DOLAS L603 LAMSO |
| Aircraft | B738/M-SDE2E3FGHIRWXY/LB1 |
Departure
| Time | 2026-05-06 18:10 |
|---|---|
| Airport | Edinburgh Airport (EGPH) |
Arrival
| Time | N/A |
|---|---|
| Airport | Amsterdam Airport Schiphol (EHAM) |
| Time | Latitude | Longitude | Altitude | Speed | Heading |
|---|---|---|---|---|---|
| 2026-05-06 17:36 | 55.94924 | -3.36433 | 111 ft | 0 kts | 148° |
| 2026-05-06 17:59 | 55.94925 | -3.36434 | 112 ft | 2 kts | 148° |
| 2026-05-06 17:59 | 55.94945 | -3.36456 | 114 ft | 2 kts | 148° |
| 2026-05-06 17:59 | 55.94963 | -3.36480 | 114 ft | 4 kts | 120° |
| 2026-05-06 18:00 | 55.94968 | -3.36522 | 111 ft | 4 kts | 75° |
| 2026-05-06 18:00 | 55.94963 | -3.36547 | 113 ft | 0 kts | 58° |
| 2026-05-06 18:03 | 55.94965 | -3.36541 | 112 ft | 1 kts | 58° |
| 2026-05-06 18:03 | 55.94976 | -3.36507 | 113 ft | 6 kts | 60° |
| 2026-05-06 18:03 | 55.95007 | -3.36415 | 114 ft | 11 kts | 53° |
| 2026-05-06 18:03 | 55.95060 | -3.36401 | 113 ft | 8 kts | 334° |
| 2026-05-06 18:04 | 55.95061 | -3.36494 | 113 ft | 9 kts | 240° |
| 2026-05-06 18:04 | 55.95020 | -3.36620 | 115 ft | 16 kts | 240° |
| 2026-05-06 18:04 | 55.94945 | -3.36839 | 113 ft | 24 kts | 237° |
| 2026-05-06 18:04 | 55.94849 | -3.37123 | 112 ft | 28 kts | 238° |
| 2026-05-06 18:05 | 55.94752 | -3.37416 | 114 ft | 26 kts | 239° |
| 2026-05-06 18:05 | 55.94659 | -3.37684 | 113 ft | 25 kts | 239° |
| 2026-05-06 18:05 | 55.94573 | -3.37937 | 114 ft | 23 kts | 239° |
| 2026-05-06 18:05 | 55.94492 | -3.38176 | 114 ft | 22 kts | 240° |
| 2026-05-06 18:06 | 55.94413 | -3.38411 | 113 ft | 22 kts | 238° |
| 2026-05-06 18:06 | 55.94336 | -3.38637 | 114 ft | 21 kts | 239° |
| 2026-05-06 18:06 | 55.94278 | -3.38815 | 113 ft | 8 kts | 257° |
| 2026-05-06 18:06 | 55.94310 | -3.38890 | 112 ft | 8 kts | 327° |
| 2026-05-06 18:07 | 55.94356 | -3.38940 | 112 ft | 8 kts | 329° |
| 2026-05-06 18:07 | 55.94400 | -3.38983 | 112 ft | 4 kts | 343° |
| 2026-05-06 18:07 | 55.94421 | -3.38952 | 110 ft | 4 kts | 56° |
| 2026-05-06 18:07 | 55.94422 | -3.38950 | 113 ft | 0 kts | 57° |
| 2026-05-06 18:09 | 55.94426 | -3.38938 | 112 ft | 10 kts | 57° |
| 2026-05-06 18:10 | 55.94571 | -3.38518 | 112 ft | 78 kts | 59° |
| 2026-05-06 18:10 | 55.94901 | -3.37540 | 111 ft | 134 kts | 59° |
| 2026-05-06 18:10 | 55.95380 | -3.36137 | 207 ft | 172 kts | 59° |
| 2026-05-06 18:10 | 55.95969 | -3.34256 | 981 ft | 171 kts | 62° |
| 2026-05-06 18:11 | 55.96573 | -3.32428 | 1832 ft | 174 kts | 52° |
| 2026-05-06 18:11 | 55.97506 | -3.30876 | 2368 ft | 193 kts | 41° |
| 2026-05-06 18:11 | 55.98579 | -3.29366 | 2940 ft | 206 kts | 37° |
| 2026-05-06 18:11 | 55.99806 | -3.27745 | 3136 ft | 231 kts | 39° |
| 2026-05-06 18:12 | 56.01120 | -3.25850 | 3409 ft | 256 kts | 41° |
| 2026-05-06 18:12 | 56.02508 | -3.23722 | 4024 ft | 266 kts | 43° |
| 2026-05-06 18:12 | 56.03660 | -3.21909 | 4732 ft | 267 kts | 43° |
| 2026-05-06 18:12 | 56.04938 | -3.19492 | 5489 ft | 270 kts | 61° |
| 2026-05-06 18:13 | 56.05390 | -3.16289 | 5934 ft | 270 kts | 94° |
| 2026-05-06 18:13 | 56.05196 | -3.12926 | 5984 ft | 274 kts | 98° |
| 2026-05-06 18:13 | 56.04716 | -3.09669 | 5989 ft | 269 kts | 122° |
| 2026-05-06 18:13 | 56.03461 | -3.07259 | 6019 ft | 267 kts | 142° |
| 2026-05-06 18:14 | 56.01970 | -3.05230 | 6013 ft | 270 kts | 144° |
| 2026-05-06 18:14 | 56.00398 | -3.03371 | 6135 ft | 273 kts | 153° |
| 2026-05-06 18:14 | 55.98689 | -3.01885 | 6930 ft | 272 kts | 156° |
| 2026-05-06 18:14 | 55.96968 | -3.00483 | 7751 ft | 273 kts | 157° |
| 2026-05-06 18:15 | 55.95221 | -2.99067 | 8487 ft | 278 kts | 156° |
| 2026-05-06 18:15 | 55.93444 | -2.97615 | 9197 ft | 283 kts | 156° |
| 2026-05-06 18:15 | 55.91648 | -2.96133 | 9925 ft | 286 kts | 156° |
| 2026-05-06 18:15 | 55.89821 | -2.94616 | 10520 ft | 296 kts | 156° |
| 2026-05-06 18:16 | 55.87928 | -2.93036 | 11122 ft | 304 kts | 156° |
| 2026-05-06 18:16 | 55.86031 | -2.91446 | 11828 ft | 307 kts | 156° |
| 2026-05-06 18:16 | 55.84092 | -2.89816 | 12577 ft | 310 kts | 157° |
| 2026-05-06 18:16 | 55.82128 | -2.88165 | 13284 ft | 314 kts | 157° |
| 2026-05-06 18:17 | 55.80135 | -2.86489 | 14003 ft | 319 kts | 157° |
| 2026-05-06 18:17 | 55.78116 | -2.84792 | 14714 ft | 323 kts | 157° |
| 2026-05-06 18:17 | 55.76070 | -2.83074 | 15429 ft | 328 kts | 157° |
| 2026-05-06 18:17 | 55.74003 | -2.81341 | 16158 ft | 331 kts | 157° |
| 2026-05-06 18:18 | 55.71918 | -2.79593 | 16850 ft | 335 kts | 158° |
| 2026-05-06 18:18 | 55.69789 | -2.77809 | 17492 ft | 340 kts | 158° |
| 2026-05-06 18:18 | 55.67632 | -2.76004 | 18144 ft | 344 kts | 158° |
| 2026-05-06 18:18 | 55.65451 | -2.74182 | 18798 ft | 348 kts | 158° |
| 2026-05-06 18:19 | 55.63251 | -2.72346 | 19433 ft | 352 kts | 158° |
| 2026-05-06 18:19 | 55.61016 | -2.70483 | 20044 ft | 356 kts | 158° |
| 2026-05-06 18:19 | 55.58771 | -2.68614 | 20638 ft | 361 kts | 158° |
| 2026-05-06 18:19 | 55.56490 | -2.66716 | 21232 ft | 365 kts | 158° |
| 2026-05-06 18:20 | 55.54184 | -2.64800 | 21808 ft | 368 kts | 158° |
| 2026-05-06 18:20 | 55.51849 | -2.62863 | 22364 ft | 372 kts | 158° |
| 2026-05-06 18:20 | 55.49496 | -2.60913 | 22896 ft | 376 kts | 158° |
| 2026-05-06 18:20 | 55.47110 | -2.58940 | 23434 ft | 380 kts | 158° |
| 2026-05-06 18:21 | 55.44707 | -2.56956 | 23970 ft | 383 kts | 158° |
| 2026-05-06 18:21 | 55.42277 | -2.54951 | 24499 ft | 386 kts | 158° |
| 2026-05-06 18:21 | 55.39833 | -2.52937 | 24966 ft | 390 kts | 158° |
| 2026-05-06 18:21 | 55.37365 | -2.50905 | 25437 ft | 394 kts | 158° |
| 2026-05-06 18:22 | 55.34879 | -2.48860 | 25890 ft | 397 kts | 158° |
| 2026-05-06 18:22 | 55.32372 | -2.46802 | 26382 ft | 399 kts | 158° |
| 2026-05-06 18:22 | 55.29844 | -2.44732 | 26830 ft | 402 kts | 158° |
| 2026-05-06 18:22 | 55.27366 | -2.42440 | 27239 ft | 408 kts | 148° |
| 2026-05-06 18:23 | 55.25057 | -2.39507 | 27658 ft | 411 kts | 144° |
| 2026-05-06 18:23 | 55.22776 | -2.36446 | 28082 ft | 414 kts | 144° |
| 2026-05-06 18:23 | 55.20493 | -2.33353 | 28486 ft | 417 kts | 143° |
| 2026-05-06 18:23 | 55.18190 | -2.30240 | 28884 ft | 419 kts | 144° |
| 2026-05-06 18:24 | 55.15869 | -2.27125 | 29235 ft | 422 kts | 144° |
| 2026-05-06 18:24 | 55.13531 | -2.24009 | 29599 ft | 425 kts | 144° |
| 2026-05-06 18:24 | 55.11172 | -2.20883 | 29989 ft | 426 kts | 144° |
| 2026-05-06 18:24 | 55.09572 | -2.18769 | 30213 ft | 428 kts | 144° |
| 2026-05-06 18:25 | 55.07189 | -2.15631 | 30518 ft | 431 kts | 144° |
| 2026-05-06 18:25 | 55.04784 | -2.12470 | 30847 ft | 433 kts | 144° |
| 2026-05-06 18:25 | 55.02374 | -2.09310 | 31189 ft | 435 kts | 144° |
| 2026-05-06 18:25 | 54.99948 | -2.06131 | 31510 ft | 437 kts | 144° |
| 2026-05-06 18:26 | 54.97542 | -2.02984 | 31800 ft | 439 kts | 144° |
| 2026-05-06 18:26 | 54.95062 | -1.99744 | 32078 ft | 441 kts | 144° |
| 2026-05-06 18:26 | 54.92637 | -1.96583 | 32396 ft | 442 kts | 144° |
| 2026-05-06 18:26 | 54.90172 | -1.93373 | 32739 ft | 443 kts | 144° |
| 2026-05-06 18:27 | 54.87702 | -1.90162 | 33024 ft | 444 kts | 144° |
| 2026-05-06 18:27 | 54.85215 | -1.86935 | 33260 ft | 447 kts | 144° |
| 2026-05-06 18:27 | 54.82724 | -1.83707 | 33509 ft | 449 kts | 144° |
| 2026-05-06 18:27 | 54.80223 | -1.80471 | 33767 ft | 450 kts | 144° |
| 2026-05-06 18:28 | 54.77710 | -1.77226 | 34020 ft | 451 kts | 144° |
| 2026-05-06 18:28 | 54.75184 | -1.73968 | 34287 ft | 452 kts | 144° |
| 2026-05-06 18:28 | 54.72660 | -1.70717 | 34499 ft | 454 kts | 144° |
| 2026-05-06 18:28 | 54.70117 | -1.67449 | 34676 ft | 457 kts | 144° |
| 2026-05-06 18:29 | 54.67565 | -1.64174 | 34878 ft | 458 kts | 144° |
| 2026-05-06 18:29 | 54.64999 | -1.60886 | 35133 ft | 458 kts | 144° |
| 2026-05-06 18:29 | 54.62440 | -1.57613 | 35367 ft | 459 kts | 144° |
| 2026-05-06 18:29 | 54.59863 | -1.54319 | 35522 ft | 462 kts | 144° |
| 2026-05-06 18:30 | 54.57273 | -1.51018 | 35666 ft | 464 kts | 144° |
| 2026-05-06 18:30 | 54.54671 | -1.47706 | 35840 ft | 466 kts | 144° |
| 2026-05-06 18:30 | 54.52067 | -1.44396 | 36062 ft | 466 kts | 144° |
| 2026-05-06 18:30 | 54.49461 | -1.41090 | 36338 ft | 465 kts | 145° |
| 2026-05-06 18:31 | 54.46855 | -1.37786 | 36555 ft | 465 kts | 145° |
| 2026-05-06 18:31 | 54.44253 | -1.34493 | 36737 ft | 465 kts | 145° |
| 2026-05-06 18:31 | 54.41650 | -1.31206 | 37011 ft | 464 kts | 145° |
| 2026-05-06 18:31 | 54.39038 | -1.27913 | 37039 ft | 468 kts | 145° |
| 2026-05-06 18:32 | 54.33776 | -1.21296 | 37042 ft | 468 kts | 145° |
| 2026-05-06 18:32 | 54.28570 | -1.14767 | 37033 ft | 459 kts | 145° |
| 2026-05-06 18:33 | 54.23460 | -1.08379 | 37047 ft | 458 kts | 145° |
| 2026-05-06 18:33 | 54.18314 | -1.01970 | 37042 ft | 458 kts | 145° |
| 2026-05-06 18:34 | 54.13156 | -0.95562 | 37047 ft | 458 kts | 146° |
| 2026-05-06 18:34 | 54.08252 | -0.89487 | 37047 ft | 459 kts | 146° |
| 2026-05-06 18:35 | 54.03084 | -0.83107 | 37052 ft | 460 kts | 146° |
| 2026-05-06 18:35 | 53.97840 | -0.76861 | 37056 ft | 460 kts | 147° |
| 2026-05-06 18:36 | 53.92524 | -0.70675 | 37045 ft | 461 kts | 147° |
| 2026-05-06 18:36 | 53.87233 | -0.64513 | 37046 ft | 461 kts | 147° |
| 2026-05-06 18:37 | 53.81959 | -0.58366 | 37045 ft | 460 kts | 147° |
| 2026-05-06 18:37 | 53.76696 | -0.52245 | 37057 ft | 458 kts | 147° |
| 2026-05-06 18:38 | 53.71444 | -0.46154 | 37057 ft | 457 kts | 147° |
| 2026-05-06 18:38 | 53.66201 | -0.40119 | 37059 ft | 456 kts | 147° |
| 2026-05-06 18:39 | 53.60957 | -0.34124 | 37068 ft | 455 kts | 147° |
| 2026-05-06 18:40 | 53.54219 | -0.22986 | 37085 ft | 457 kts | 127° |
| 2026-05-06 18:40 | 53.50447 | -0.14373 | 37076 ft | 457 kts | 127° |
| 2026-05-06 18:41 | 53.46656 | -0.05807 | 37071 ft | 458 kts | 128° |
| 2026-05-06 18:41 | 53.42841 | 0.02672 | 37066 ft | 458 kts | 128° |
| 2026-05-06 18:42 | 53.38983 | 0.11186 | 37061 ft | 459 kts | 129° |
| 2026-05-06 18:42 | 53.35116 | 0.19694 | 37054 ft | 460 kts | 129° |
| 2026-05-06 18:43 | 53.31239 | 0.28194 | 37053 ft | 460 kts | 129° |
| 2026-05-06 18:43 | 53.27353 | 0.36695 | 37045 ft | 460 kts | 129° |
| 2026-05-06 18:44 | 53.23465 | 0.45166 | 37037 ft | 460 kts | 129° |
| 2026-05-06 18:44 | 53.19564 | 0.53619 | 37042 ft | 459 kts | 129° |
| 2026-05-06 18:45 | 53.15661 | 0.62048 | 37030 ft | 459 kts | 129° |
| 2026-05-06 18:45 | 53.11759 | 0.70455 | 37038 ft | 458 kts | 129° |
| 2026-05-06 18:46 | 53.07858 | 0.78834 | 37029 ft | 458 kts | 129° |
| 2026-05-06 18:46 | 53.03955 | 0.87189 | 37028 ft | 457 kts | 129° |
| 2026-05-06 18:47 | 53.00079 | 0.95528 | 37022 ft | 456 kts | 126° |
| 2026-05-06 18:47 | 52.97311 | 1.05005 | 37024 ft | 459 kts | 108° |
| 2026-05-06 18:47 | 52.96576 | 1.10188 | 36840 ft | 464 kts | 102° |
| 2026-05-06 18:48 | 52.95980 | 1.15446 | 36531 ft | 463 kts | 101° |
| 2026-05-06 18:48 | 52.95413 | 1.20688 | 36004 ft | 461 kts | 101° |
| 2026-05-06 18:48 | 52.94847 | 1.25901 | 35413 ft | 460 kts | 101° |
| 2026-05-06 18:48 | 52.94264 | 1.31132 | 34767 ft | 461 kts | 102° |
| 2026-05-06 18:49 | 52.93667 | 1.36352 | 34110 ft | 462 kts | 102° |
| 2026-05-06 18:49 | 52.93058 | 1.41581 | 33445 ft | 463 kts | 102° |
| 2026-05-06 18:49 | 52.92441 | 1.46799 | 32976 ft | 458 kts | 102° |
| 2026-05-06 18:49 | 52.91826 | 1.51961 | 32490 ft | 455 kts | 102° |
| 2026-05-06 18:50 | 52.91214 | 1.57077 | 32016 ft | 451 kts | 102° |
| 2026-05-06 18:50 | 52.90604 | 1.62152 | 31511 ft | 449 kts | 102° |
| 2026-05-06 18:50 | 52.89992 | 1.67216 | 31028 ft | 446 kts | 103° |
| 2026-05-06 18:50 | 52.89385 | 1.72231 | 30561 ft | 443 kts | 103° |
| 2026-05-06 18:51 | 52.88781 | 1.77205 | 30097 ft | 439 kts | 103° |
| 2026-05-06 18:51 | 52.88179 | 1.82143 | 29639 ft | 436 kts | 103° |
| 2026-05-06 18:51 | 52.87580 | 1.87043 | 29169 ft | 432 kts | 103° |
| 2026-05-06 18:51 | 52.86993 | 1.91829 | 28715 ft | 429 kts | 103° |
| 2026-05-06 18:52 | 52.86400 | 1.96644 | 28238 ft | 426 kts | 103° |
| 2026-05-06 18:52 | 52.85810 | 2.01420 | 27772 ft | 423 kts | 103° |
| 2026-05-06 18:52 | 52.85213 | 2.06232 | 27307 ft | 419 kts | 103° |
| 2026-05-06 18:52 | 52.84628 | 2.10936 | 26847 ft | 416 kts | 103° |
| 2026-05-06 18:53 | 52.84052 | 2.15545 | 26390 ft | 413 kts | 103° |
| 2026-05-06 18:53 | 52.83463 | 2.20245 | 25934 ft | 410 kts | 103° |
| 2026-05-06 18:53 | 52.82884 | 2.24849 | 25478 ft | 408 kts | 103° |
| 2026-05-06 18:53 | 52.82315 | 2.29367 | 25031 ft | 405 kts | 103° |
| 2026-05-06 18:54 | 52.81733 | 2.33969 | 24568 ft | 403 kts | 103° |
| 2026-05-06 18:54 | 52.81168 | 2.38424 | 24137 ft | 400 kts | 103° |
| 2026-05-06 18:54 | 52.80597 | 2.42910 | 23692 ft | 397 kts | 103° |
| 2026-05-06 18:54 | 52.80028 | 2.47361 | 23243 ft | 395 kts | 103° |
| 2026-05-06 18:55 | 52.79470 | 2.51782 | 22857 ft | 391 kts | 103° |
| 2026-05-06 18:55 | 52.78910 | 2.56150 | 22433 ft | 388 kts | 103° |
| 2026-05-06 18:55 | 52.78346 | 2.60501 | 22007 ft | 385 kts | 103° |
| 2026-05-06 18:55 | 52.77786 | 2.64803 | 21599 ft | 382 kts | 103° |
| 2026-05-06 18:56 | 52.77228 | 2.69084 | 21187 ft | 380 kts | 103° |
| 2026-05-06 18:56 | 52.76675 | 2.73321 | 20776 ft | 377 kts | 103° |
| 2026-05-06 18:56 | 52.76121 | 2.77546 | 20356 ft | 374 kts | 103° |
| 2026-05-06 18:56 | 52.75575 | 2.81727 | 19945 ft | 372 kts | 103° |
| 2026-05-06 18:57 | 52.75039 | 2.85894 | 19540 ft | 370 kts | 103° |
| 2026-05-06 18:57 | 52.74509 | 2.90033 | 19117 ft | 368 kts | 103° |
| 2026-05-06 18:57 | 52.73979 | 2.94155 | 18696 ft | 365 kts | 103° |
| 2026-05-06 18:57 | 52.73445 | 2.98237 | 18286 ft | 363 kts | 104° |
| 2026-05-06 18:58 | 52.72501 | 3.02047 | 17870 ft | 359 kts | 121° |
| 2026-05-06 18:58 | 52.71227 | 3.05576 | 17482 ft | 356 kts | 122° |
| 2026-05-06 18:58 | 52.69966 | 3.09064 | 17083 ft | 354 kts | 121° |
| 2026-05-06 18:58 | 52.68716 | 3.12554 | 16681 ft | 352 kts | 121° |
| 2026-05-06 18:59 | 52.67483 | 3.16024 | 16271 ft | 350 kts | 121° |
| 2026-05-06 18:59 | 52.66265 | 3.19470 | 15874 ft | 348 kts | 121° |
| 2026-05-06 18:59 | 52.65051 | 3.22909 | 15480 ft | 346 kts | 121° |
| 2026-05-06 18:59 | 52.63847 | 3.26326 | 15084 ft | 343 kts | 121° |
| 2026-05-06 19:00 | 52.62655 | 3.29710 | 14689 ft | 341 kts | 120° |
| 2026-05-06 19:00 | 52.61464 | 3.33082 | 14298 ft | 339 kts | 120° |
| 2026-05-06 19:00 | 52.60281 | 3.36424 | 13908 ft | 337 kts | 120° |
| 2026-05-06 19:00 | 52.59499 | 3.38629 | 13653 ft | 336 kts | 120° |
| 2026-05-06 19:01 | 52.58220 | 3.43259 | 13106 ft | 334 kts | 101° |
| 2026-05-06 19:01 | 52.57835 | 3.47002 | 12744 ft | 330 kts | 98° |
| 2026-05-06 19:01 | 52.57470 | 3.50721 | 12357 ft | 329 kts | 98° |
| 2026-05-06 19:01 | 52.57100 | 3.54421 | 11965 ft | 327 kts | 99° |
| 2026-05-06 19:02 | 52.56723 | 3.58099 | 11586 ft | 325 kts | 99° |
| 2026-05-06 19:02 | 52.56341 | 3.61754 | 11210 ft | 324 kts | 99° |
| 2026-05-06 19:02 | 52.55955 | 3.65390 | 10830 ft | 321 kts | 99° |
| 2026-05-06 19:02 | 52.55569 | 3.68996 | 10484 ft | 319 kts | 99° |
| 2026-05-06 19:03 | 52.55190 | 3.72517 | 10359 ft | 308 kts | 99° |
| 2026-05-06 19:03 | 52.54821 | 3.75934 | 10215 ft | 299 kts | 99° |
| 2026-05-06 19:03 | 52.54461 | 3.79254 | 10085 ft | 290 kts | 99° |
| 2026-05-06 19:03 | 52.54113 | 3.82467 | 9962 ft | 282 kts | 99° |
| 2026-05-06 19:04 | 52.53770 | 3.85616 | 9693 ft | 279 kts | 98° |
| 2026-05-06 19:04 | 52.53427 | 3.88753 | 9425 ft | 278 kts | 98° |
| 2026-05-06 19:04 | 52.53085 | 3.91871 | 9145 ft | 276 kts | 98° |
| 2026-05-06 19:04 | 52.52746 | 3.94948 | 8867 ft | 274 kts | 99° |
| 2026-05-06 19:05 | 52.52032 | 3.97828 | 8573 ft | 275 kts | 125° |
| 2026-05-06 19:05 | 52.50845 | 4.00210 | 8346 ft | 272 kts | 128° |
| 2026-05-06 19:05 | 52.49629 | 4.02583 | 8046 ft | 271 kts | 128° |
| 2026-05-06 19:05 | 52.48400 | 4.04978 | 7757 ft | 270 kts | 127° |
| 2026-05-06 19:06 | 52.47216 | 4.07361 | 7469 ft | 268 kts | 120° |
| 2026-05-06 19:06 | 52.46591 | 4.10161 | 7179 ft | 260 kts | 91° |
| 2026-05-06 19:06 | 52.46885 | 4.13001 | 7018 ft | 252 kts | 62° |
| 2026-05-06 19:06 | 52.47548 | 4.14554 | 6989 ft | 252 kts | 43° |
| 2026-05-06 19:07 | 52.49310 | 4.16694 | 6962 ft | 252 kts | 33° |
| 2026-05-06 19:07 | 52.50300 | 4.17746 | 6957 ft | 251 kts | 33° |
| 2026-05-06 19:07 | 52.52254 | 4.19793 | 6946 ft | 251 kts | 32° |
| 2026-05-06 19:07 | 52.53703 | 4.21390 | 6951 ft | 251 kts | 39° |
| 2026-05-06 19:08 | 52.54746 | 4.23701 | 6953 ft | 253 kts | 69° |
| 2026-05-06 19:08 | 52.54948 | 4.26522 | 6959 ft | 257 kts | 96° |
| 2026-05-06 19:08 | 52.54268 | 4.29235 | 6964 ft | 264 kts | 125° |
| 2026-05-06 19:08 | 52.52849 | 4.31178 | 6804 ft | 273 kts | 152° |
| 2026-05-06 19:09 | 52.50994 | 4.31992 | 6510 ft | 278 kts | 170° |
| 2026-05-06 19:09 | 52.49078 | 4.32385 | 6187 ft | 279 kts | 172° |
| 2026-05-06 19:09 | 52.47148 | 4.32714 | 5865 ft | 279 kts | 172° |
| 2026-05-06 19:09 | 52.45215 | 4.33029 | 5538 ft | 279 kts | 172° |
| 2026-05-06 19:10 | 52.43909 | 4.33234 | 5315 ft | 279 kts | 172° |
| 2026-05-06 19:10 | 52.41971 | 4.33520 | 4997 ft | 280 kts | 172° |
| 2026-05-06 19:10 | 52.40023 | 4.33818 | 4663 ft | 280 kts | 172° |
| 2026-05-06 19:10 | 52.38090 | 4.34060 | 4323 ft | 275 kts | 174° |
| 2026-05-06 19:11 | 52.36208 | 4.34286 | 4012 ft | 268 kts | 173° |
| 2026-05-06 19:11 | 52.34371 | 4.34517 | 3705 ft | 261 kts | 172° |
| 2026-05-06 19:11 | 52.32590 | 4.34844 | 3412 ft | 252 kts | 161° |
| 2026-05-06 19:11 | 52.31125 | 4.36157 | 3146 ft | 235 kts | 129° |
| 2026-05-06 19:12 | 52.30085 | 4.38144 | 2970 ft | 228 kts | 123° |
| 2026-05-06 19:12 | 52.29110 | 4.40178 | 2756 ft | 226 kts | 123° |
| 2026-05-06 19:12 | 52.28163 | 4.42193 | 2650 ft | 223 kts | 122° |
| 2026-05-06 19:12 | 52.27222 | 4.44213 | 2495 ft | 225 kts | 122° |
| 2026-05-06 19:13 | 52.26279 | 4.46264 | 2397 ft | 226 kts | 122° |
| 2026-05-06 19:13 | 52.25350 | 4.48297 | 2319 ft | 226 kts | 122° |
| 2026-05-06 19:13 | 52.24415 | 4.50356 | 2220 ft | 226 kts | 122° |
| 2026-05-06 19:13 | 52.23484 | 4.52423 | 2117 ft | 227 kts | 122° |
| 2026-05-06 19:14 | 52.22613 | 4.54550 | 2026 ft | 225 kts | 110° |
| 2026-05-06 19:14 | 52.22505 | 4.56966 | 2007 ft | 213 kts | 68° |
| 2026-05-06 19:14 | 52.23278 | 4.58970 | 2016 ft | 209 kts | 52° |
| 2026-05-06 19:14 | 52.24067 | 4.60992 | 1783 ft | 212 kts | 57° |
| 2026-05-06 19:15 | 52.24822 | 4.63035 | 1500 ft | 207 kts | 57° |
| 2026-05-06 19:15 | 52.25558 | 4.64967 | 1262 ft | 192 kts | 56° |
| 2026-05-06 19:15 | 52.26238 | 4.66741 | 1001 ft | 177 kts | 56° |